Time;durP1;ratioP1;P1;durP2;ratioP2;P2;SDS_P1;SDS_P2;PMS_P1;PMS_P2;Temp;Humidity;BMP_temperature;BMP_pressure;BME280_temperature;BME280_humidity;BME280_pressure;Samples;Min_cycle;Max_cycle;Signal;HPM_P1;HPM_P2
2023/01/15 00:00:00;;;;;;;1.4;1.4;;;;;;;7.0;100.0;99670;;;;
2023/01/15 00:01:01;;;;;;;1.4;1.4;;;;;;;7.0;100.0;99670;;;;
2023/01/15 00:02:00;;;;;;;1.4;1.4;;;;;;;7.0;100.0;99660;;;;
2023/01/15 00:03:00;;;;;;;1.4;1.4;;;;;;;7.0;100.0;99660;;;;
2023/01/15 00:04:04;;;;;;;1.4;1.4;;;;;;;7.0;100.0;99660;;;;
2023/01/15 00:05:02;;;;;;;1.4;1.4;;;;;;;7.0;100.0;99660;;;;
2023/01/15 00:06:01;;;;;;;1.4;1.4;;;;;;;6.9;100.0;99660;;;;
2023/01/15 00:07:00;;;;;;;1.4;1.4;;;;;;;6.9;100.0;99660;;;;
2023/01/15 00:08:01;;;;;;;1.3;1.3;;;;;;;6.9;100.0;99670;;;;
2023/01/15 00:09:00;;;;;;;1.3;1.3;;;;;;;6.9;100.0;99670;;;;
2023/01/15 00:10:00;;;;;;;1.3;1.3;;;;;;;6.9;100.0;99670;;;;
2023/01/15 00:11:04;;;;;;;1.3;1.3;;;;;;;6.8;100.0;99660;;;;
2023/01/15 00:12:01;;;;;;;1.3;1.3;;;;;;;6.8;100.0;99660;;;;
2023/01/15 00:13:00;;;;;;;1.3;1.3;;;;;;;6.8;100.0;99660;;;;
2023/01/15 00:14:00;;;;;;;1.3;1.3;;;;;;;6.8;100.0;99660;;;;
2023/01/15 00:15:00;;;;;;;1.3;1.3;;;;;;;6.8;100.0;99660;;;;
2023/01/15 00:16:02;;;;;;;1.3;1.3;;;;;;;6.7;100.0;99660;;;;
2023/01/15 00:17:00;;;;;;;1.3;1.3;;;;;;;6.7;100.0;99660;;;;
2023/01/15 00:18:00;;;;;;;1.3;1.3;;;;;;;6.7;100.0;99670;;;;
2023/01/15 00:19:03;;;;;;;1.3;1.3;;;;;;;6.7;100.0;99670;;;;
2023/01/15 00:20:00;;;;;;;1.3;1.3;;;;;;;6.7;100.0;99670;;;;
2023/01/15 00:21:01;;;;;;;1.3;1.3;;;;;;;6.7;100.0;99670;;;;
2023/01/15 00:22:00;;;;;;;1.3;1.3;;;;;;;6.7;100.0;99670;;;;
2023/01/15 00:23:00;;;;;;;1.3;1.3;;;;;;;6.7;100.0;99670;;;;
2023/01/15 00:28:02;;;;;;;1.4;1.4;;;;;;;6.6;100.0;99660;;;;
2023/01/15 00:29:01;;;;;;;1.4;1.4;;;;;;;6.6;100.0;99660;;;;
2023/01/15 00:30:00;;;;;;;1.4;1.4;;;;;;;6.5;100.0;99680;;;;
2023/01/15 00:31:00;;;;;;;1.4;1.4;;;;;;;6.5;100.0;99680;;;;
2023/01/15 00:32:03;;;;;;;1.4;1.4;;;;;;;6.5;100.0;99670;;;;
2023/01/15 00:33:00;;;;;;;1.4;1.4;;;;;;;6.5;100.0;99670;;;;
2023/01/15 00:34:00;;;;;;;1.4;1.4;;;;;;;6.6;100.0;99650;;;;
2023/01/15 00:35:00;;;;;;;1.4;1.4;;;;;;;6.6;100.0;99650;;;;
2023/01/15 00:36:00;;;;;;;1.4;1.4;;;;;;;6.5;100.0;99660;;;;
2023/01/15 00:37:00;;;;;;;1.4;1.4;;;;;;;6.5;100.0;99660;;;;
2023/01/15 00:38:00;;;;;;;1.4;1.4;;;;;;;6.5;100.0;99660;;;;
2023/01/15 00:39:00;;;;;;;1.4;1.4;;;;;;;6.5;100.0;99660;;;;
2023/01/15 00:40:00;;;;;;;1.4;1.4;;;;;;;6.5;100.0;99660;;;;
2023/01/15 00:41:00;;;;;;;1.4;1.4;;;;;;;6.5;100.0;99660;;;;
2023/01/15 00:42:01;;;;;;;1.4;1.4;;;;;;;6.5;100.0;99660;;;;
2023/01/15 00:43:00;;;;;;;1.4;1.4;;;;;;;6.5;100.0;99660;;;;
2023/01/15 00:44:02;;;;;;;1.4;1.4;;;;;;;6.6;100.0;99650;;;;
2023/01/15 00:45:08;;;;;;;1.4;1.4;;;;;;;6.6;100.0;99650;;;;
2023/01/15 00:46:01;;;;;;;1.4;1.4;;;;;;;6.5;100.0;99660;;;;
2023/01/15 00:47:00;;;;;;;1.4;1.4;;;;;;;6.5;100.0;99660;;;;
2023/01/15 00:48:00;;;;;;;1.4;1.4;;;;;;;6.5;100.0;99660;;;;
2023/01/15 00:49:00;;;;;;;1.4;1.4;;;;;;;6.5;100.0;99660;;;;
2023/01/15 00:50:00;;;;;;;1.4;1.4;;;;;;;6.6;100.0;99670;;;;
2023/01/15 00:51:00;;;;;;;1.4;1.4;;;;;;;6.6;100.0;99670;;;;
2023/01/15 00:52:00;;;;;;;1.4;1.4;;;;;;;6.5;100.0;99670;;;;
2023/01/15 00:53:00;;;;;;;1.4;1.4;;;;;;;6.5;100.0;99670;;;;
2023/01/15 00:54:00;;;;;;;1.4;1.4;;;;;;;6.5;100.0;99680;;;;
2023/01/15 00:55:00;;;;;;;1.4;1.4;;;;;;;6.5;100.0;99680;;;;
2023/01/15 00:56:00;;;;;;;1.4;1.4;;;;;;;6.5;100.0;99680;;;;
2023/01/15 00:57:00;;;;;;;1.4;1.4;;;;;;;6.5;100.0;99680;;;;
2023/01/15 00:58:00;;;;;;;1.4;1.4;;;;;;;6.5;100.0;99680;;;;
2023/01/15 00:59:01;;;;;;;1.4;1.4;;;;;;;6.5;100.0;99680;;;;
2023/01/15 01:00:00;;;;;;;1.4;1.4;;;;;;;6.5;100.0;99670;;;;
2023/01/15 01:01:00;;;;;;;1.4;1.4;;;;;;;6.5;100.0;99670;;;;
2023/01/15 01:02:00;;;;;;;1.4;1.4;;;;;;;6.5;100.0;99680;;;;
2023/01/15 01:03:00;;;;;;;1.4;1.4;;;;;;;6.5;100.0;99680;;;;
2023/01/15 01:04:00;;;;;;;1.4;1.4;;;;;;;6.4;100.0;99680;;;;
2023/01/15 01:05:00;;;;;;;1.4;1.4;;;;;;;6.4;100.0;99680;;;;
2023/01/15 01:06:01;;;;;;;1.4;1.4;;;;;;;6.5;100.0;99690;;;;
2023/01/15 01:07:00;;;;;;;1.4;1.4;;;;;;;6.5;100.0;99690;;;;
2023/01/15 01:08:00;;;;;;;1.4;1.4;;;;;;;6.4;100.0;99680;;;;
2023/01/15 01:09:00;;;;;;;1.4;1.4;;;;;;;6.4;100.0;99680;;;;
2023/01/15 01:10:00;;;;;;;1.4;1.4;;;;;;;6.4;100.0;99680;;;;
2023/01/15 01:11:01;;;;;;;1.4;1.4;;;;;;;6.4;100.0;99680;;;;
2023/01/15 01:12:00;;;;;;;1.4;1.4;;;;;;;6.5;100.0;99680;;;;
2023/01/15 01:13:00;;;;;;;1.4;1.4;;;;;;;6.5;100.0;99680;;;;
2023/01/15 01:14:01;;;;;;;1.4;1.4;;;;;;;6.4;100.0;99690;;;;
2023/01/15 01:15:00;;;;;;;1.4;1.4;;;;;;;6.4;100.0;99690;;;;
2023/01/15 01:16:01;;;;;;;1.4;1.4;;;;;;;6.4;100.0;99680;;;;
2023/01/15 01:17:00;;;;;;;1.4;1.4;;;;;;;6.4;100.0;99680;;;;
2023/01/15 01:18:00;;;;;;;1.4;1.4;;;;;;;6.4;100.0;99680;;;;
2023/01/15 01:19:02;;;;;;;1.4;1.4;;;;;;;6.4;100.0;99680;;;;
2023/01/15 01:20:00;;;;;;;1.4;1.4;;;;;;;6.4;100.0;99680;;;;
2023/01/15 01:21:03;;;;;;;1.4;1.4;;;;;;;6.4;100.0;99680;;;;
2023/01/15 01:22:00;;;;;;;1.4;1.4;;;;;;;6.4;100.0;99680;;;;
2023/01/15 01:23:00;;;;;;;1.4;1.4;;;;;;;6.4;100.0;99680;;;;
2023/01/15 01:24:00;;;;;;;1.4;1.4;;;;;;;6.3;100.0;99690;;;;
2023/01/15 01:25:00;;;;;;;1.4;1.4;;;;;;;6.3;100.0;99690;;;;
2023/01/15 01:26:00;;;;;;;1.4;1.4;;;;;;;6.4;100.0;99690;;;;
2023/01/15 01:27:00;;;;;;;1.4;1.4;;;;;;;6.4;100.0;99690;;;;
2023/01/15 01:28:00;;;;;;;1.4;1.4;;;;;;;6.4;100.0;99680;;;;
2023/01/15 01:29:00;;;;;;;1.4;1.4;;;;;;;6.4;100.0;99680;;;;
2023/01/15 01:30:01;;;;;;;1.4;1.4;;;;;;;6.4;100.0;99680;;;;
2023/01/15 01:31:03;;;;;;;1.4;1.4;;;;;;;6.3;100.0;99680;;;;
2023/01/15 01:32:00;;;;;;;1.4;1.4;;;;;;;6.3;100.0;99680;;;;
2023/01/15 01:33:00;;;;;;;1.4;1.4;;;;;;;6.3;100.0;99680;;;;
2023/01/15 01:34:00;;;;;;;1.4;1.4;;;;;;;6.3;100.0;99680;;;;
2023/01/15 01:35:00;;;;;;;1.4;1.4;;;;;;;6.3;100.0;99680;;;;
2023/01/15 01:36:00;;;;;;;1.4;1.4;;;;;;;6.4;100.0;99680;;;;
2023/01/15 01:37:00;;;;;;;1.4;1.4;;;;;;;6.4;100.0;99680;;;;
2023/01/15 01:38:01;;;;;;;1.4;1.4;;;;;;;6.4;100.0;99680;;;;
2023/01/15 01:39:01;;;;;;;1.4;1.4;;;;;;;6.4;100.0;99680;;;;
2023/01/15 01:40:00;;;;;;;1.4;1.4;;;;;;;6.3;100.0;99680;;;;
2023/01/15 01:41:00;;;;;;;1.4;1.4;;;;;;;6.3;100.0;99680;;;;
2023/01/15 01:42:00;;;;;;;1.4;1.4;;;;;;;6.3;100.0;99670;;;;
2023/01/15 01:43:00;;;;;;;1.4;1.4;;;;;;;6.3;100.0;99670;;;;
2023/01/15 01:44:03;;;;;;;1.4;1.4;;;;;;;6.3;100.0;99680;;;;
2023/01/15 01:45:03;;;;;;;1.4;1.4;;;;;;;6.3;100.0;99680;;;;
2023/01/15 01:46:00;;;;;;;1.4;1.4;;;;;;;6.3;100.0;99680;;;;
2023/01/15 01:47:02;;;;;;;1.4;1.4;;;;;;;6.3;100.0;99680;;;;
2023/01/15 01:48:03;;;;;;;1.5;1.5;;;;;;;6.3;100.0;99690;;;;
2023/01/15 01:49:03;;;;;;;1.5;1.5;;;;;;;6.2;100.0;99680;;;;
2023/01/15 01:50:03;;;;;;;1.5;1.5;;;;;;;6.2;100.0;99680;;;;
2023/01/15 01:51:01;;;;;;;1.5;1.5;;;;;;;6.2;100.0;99680;;;;
2023/01/15 01:52:02;;;;;;;1.5;1.5;;;;;;;6.3;100.0;99680;;;;
2023/01/15 01:53:04;;;;;;;1.5;1.5;;;;;;;6.3;100.0;99690;;;;
2023/01/15 01:54:01;;;;;;;1.5;1.5;;;;;;;6.3;100.0;99690;;;;
2023/01/15 01:55:01;;;;;;;1.5;1.5;;;;;;;6.3;100.0;99690;;;;
2023/01/15 01:56:00;;;;;;;1.5;1.5;;;;;;;6.2;100.0;99690;;;;
2023/01/15 01:57:01;;;;;;;1.5;1.5;;;;;;;6.2;100.0;99690;;;;
2023/01/15 01:58:03;;;;;;;1.5;1.5;;;;;;;6.3;100.0;99680;;;;
2023/01/15 01:59:01;;;;;;;1.5;1.5;;;;;;;6.3;100.0;99680;;;;
2023/01/15 02:00:04;;;;;;;1.5;1.5;;;;;;;6.3;100.0;99680;;;;
2023/01/15 02:01:01;;;;;;;1.5;1.5;;;;;;;6.3;100.0;99680;;;;
2023/01/15 02:02:00;;;;;;;1.5;1.5;;;;;;;6.3;100.0;99690;;;;
2023/01/15 02:03:01;;;;;;;1.5;1.5;;;;;;;6.3;100.0;99690;;;;
2023/01/15 02:04:01;;;;;;;1.5;1.5;;;;;;;6.3;100.0;99680;;;;
2023/01/15 02:05:01;;;;;;;1.5;1.5;;;;;;;6.3;100.0;99680;;;;
2023/01/15 02:06:01;;;;;;;1.5;1.5;;;;;;;6.2;100.0;99680;;;;
2023/01/15 02:07:01;;;;;;;1.5;1.5;;;;;;;6.2;100.0;99680;;;;
2023/01/15 02:08:00;;;;;;;1.3;1.3;;;;;;;6.2;100.0;99680;;;;
2023/01/15 02:09:00;;;;;;;1.3;1.3;;;;;;;6.2;100.0;99680;;;;
2023/01/15 02:10:00;;;;;;;1.3;1.3;;;;;;;6.2;100.0;99680;;;;
2023/01/15 02:11:00;;;;;;;1.3;1.3;;;;;;;6.2;100.0;99680;;;;
2023/01/15 02:12:05;;;;;;;1.3;1.3;;;;;;;6.2;100.0;99690;;;;
2023/01/15 02:13:10;;;;;;;1.3;1.3;;;;;;;6.1;100.0;99680;;;;
2023/01/15 02:14:07;;;;;;;1.3;1.3;;;;;;;6.1;100.0;99680;;;;
2023/01/15 02:15:06;;;;;;;1.3;1.3;;;;;;;6.2;100.0;99690;;;;
2023/01/15 02:16:05;;;;;;;1.3;1.3;;;;;;;6.2;100.0;99690;;;;
2023/01/15 02:17:00;;;;;;;1.3;1.3;;;;;;;6.2;100.0;99690;;;;
2023/01/15 02:18:08;;;;;;;1.3;1.3;;;;;;;6.1;100.0;99690;;;;
2023/01/15 02:19:03;;;;;;;1.3;1.3;;;;;;;6.1;100.0;99690;;;;
2023/01/15 02:20:01;;;;;;;1.3;1.3;;;;;;;6.1;100.0;99690;;;;
2023/01/15 02:21:04;;;;;;;1.3;1.3;;;;;;;6.1;100.0;99680;;;;
2023/01/15 02:22:10;;;;;;;1.3;1.3;;;;;;;6.1;100.0;99680;;;;
2023/01/15 02:23:10;;;;;;;1.3;1.3;;;;;;;6.1;100.0;99680;;;;
2023/01/15 02:24:10;;;;;;;1.3;1.3;;;;;;;6.1;100.0;99680;;;;
2023/01/15 02:25:10;;;;;;;1.3;1.3;;;;;;;6.1;100.0;99680;;;;
2023/01/15 02:26:01;;;;;;;1.3;1.3;;;;;;;6.1;100.0;99680;;;;
2023/01/15 02:27:10;;;;;;;1.7;1.7;;;;;;;6.2;100.0;99680;;;;
2023/01/15 02:28:07;;;;;;;1.7;1.7;;;;;;;6.2;100.0;99680;;;;
2023/01/15 02:29:01;;;;;;;1.7;1.7;;;;;;;6.2;100.0;99680;;;;
2023/01/15 02:30:05;;;;;;;1.7;1.7;;;;;;;6.2;100.0;99670;;;;
2023/01/15 02:31:01;;;;;;;1.7;1.7;;;;;;;6.2;100.0;99670;;;;
2023/01/15 02:32:06;;;;;;;1.7;1.7;;;;;;;6.1;100.0;99670;;;;
2023/01/15 02:33:03;;;;;;;1.7;1.7;;;;;;;6.1;100.0;99670;;;;
2023/01/15 02:34:04;;;;;;;1.7;1.7;;;;;;;6.1;100.0;99670;;;;
2023/01/15 02:35:03;;;;;;;1.7;1.7;;;;;;;6.1;100.0;99670;;;;
2023/01/15 02:36:00;;;;;;;1.7;1.7;;;;;;;6.1;100.0;99670;;;;
2023/01/15 02:37:05;;;;;;;1.7;1.7;;;;;;;6.1;100.0;99670;;;;
2023/01/15 02:38:04;;;;;;;1.7;1.7;;;;;;;6.1;100.0;99670;;;;
2023/01/15 02:39:02;;;;;;;1.7;1.7;;;;;;;6.1;100.0;99670;;;;
2023/01/15 02:40:01;;;;;;;1.7;1.7;;;;;;;6.1;100.0;99670;;;;
2023/01/15 02:41:02;;;;;;;1.7;1.7;;;;;;;6.1;100.0;99670;;;;
2023/01/15 02:42:02;;;;;;;1.7;1.7;;;;;;;6.1;100.0;99660;;;;
2023/01/15 02:43:00;;;;;;;1.7;1.7;;;;;;;6.1;100.0;99660;;;;
2023/01/15 02:44:02;;;;;;;1.7;1.7;;;;;;;6.1;100.0;99670;;;;
2023/01/15 02:45:02;;;;;;;1.7;1.7;;;;;;;6.1;100.0;99670;;;;
2023/01/15 02:46:02;;;;;;;1.7;1.7;;;;;;;6.0;100.0;99670;;;;
2023/01/15 02:47:03;;;;;;;1.7;1.7;;;;;;;6.0;100.0;99670;;;;
2023/01/15 02:48:04;;;;;;;1.7;1.7;;;;;;;6.1;100.0;99660;;;;
2023/01/15 02:49:02;;;;;;;1.7;1.7;;;;;;;6.1;100.0;99660;;;;
2023/01/15 02:50:04;;;;;;;1.7;1.7;;;;;;;6.1;100.0;99670;;;;
2023/01/15 02:51:05;;;;;;;1.7;1.7;;;;;;;6.0;100.0;99660;;;;
2023/01/15 02:52:05;;;;;;;1.7;1.7;;;;;;;6.0;100.0;99660;;;;
2023/01/15 02:53:04;;;;;;;1.7;1.7;;;;;;;6.0;100.0;99660;;;;
2023/01/15 02:54:03;;;;;;;1.7;1.7;;;;;;;5.9;100.0;99650;;;;
2023/01/15 02:55:05;;;;;;;1.7;1.7;;;;;;;5.9;100.0;99650;;;;
2023/01/15 02:56:04;;;;;;;1.7;1.7;;;;;;;5.9;100.0;99650;;;;
2023/01/15 02:57:02;;;;;;;1.7;1.7;;;;;;;5.9;100.0;99650;;;;
2023/01/15 02:58:03;;;;;;;1.7;1.7;;;;;;;5.9;100.0;99650;;;;
2023/01/15 02:59:04;;;;;;;1.7;1.7;;;;;;;6.0;100.0;99650;;;;
2023/01/15 03:00:02;;;;;;;1.7;1.7;;;;;;;6.0;100.0;99650;;;;
2023/01/15 03:01:03;;;;;;;1.7;1.7;;;;;;;6.0;100.0;99660;;;;
2023/01/15 03:02:03;;;;;;;1.7;1.7;;;;;;;6.0;100.0;99660;;;;
2023/01/15 03:03:05;;;;;;;1.7;1.7;;;;;;;6.0;100.0;99660;;;;
2023/01/15 03:04:03;;;;;;;1.7;1.7;;;;;;;6.0;100.0;99660;;;;
2023/01/15 03:05:07;;;;;;;1.7;1.7;;;;;;;6.1;100.0;99660;;;;
2023/01/15 03:06:07;;;;;;;1.7;1.7;;;;;;;6.1;100.0;99660;;;;
2023/01/15 03:07:05;;;;;;;1.5;1.5;;;;;;;6.0;100.0;99650;;;;
2023/01/15 03:08:01;;;;;;;1.5;1.5;;;;;;;6.0;100.0;99650;;;;
2023/01/15 03:09:00;;;;;;;1.5;1.5;;;;;;;6.0;100.0;99650;;;;
2023/01/15 03:10:01;;;;;;;1.5;1.5;;;;;;;6.0;100.0;99660;;;;
2023/01/15 03:11:08;;;;;;;1.5;1.5;;;;;;;5.9;100.0;99660;;;;
2023/01/15 03:12:09;;;;;;;1.5;1.5;;;;;;;5.9;100.0;99660;;;;
2023/01/15 03:13:01;;;;;;;1.5;1.5;;;;;;;5.9;100.0;99660;;;;
2023/01/15 03:14:04;;;;;;;1.5;1.5;;;;;;;5.9;100.0;99660;;;;
2023/01/15 03:15:05;;;;;;;1.5;1.5;;;;;;;5.9;100.0;99660;;;;
2023/01/15 03:17:04;;;;;;;1.5;1.5;;;;;;;5.9;100.0;99660;;;;
2023/01/15 03:18:03;;;;;;;1.5;1.5;;;;;;;5.9;100.0;99660;;;;
2023/01/15 03:19:06;;;;;;;1.5;1.5;;;;;;;5.9;100.0;99660;;;;
2023/01/15 03:20:05;;;;;;;1.5;1.5;;;;;;;5.9;100.0;99660;;;;
2023/01/15 03:21:04;;;;;;;1.5;1.5;;;;;;;5.9;100.0;99660;;;;
2023/01/15 03:22:03;;;;;;;1.5;1.5;;;;;;;5.9;100.0;99660;;;;
2023/01/15 03:23:06;;;;;;;1.5;1.5;;;;;;;5.9;100.0;99660;;;;
2023/01/15 03:24:01;;;;;;;1.5;1.5;;;;;;;5.9;100.0;99660;;;;
2023/01/15 03:25:01;;;;;;;1.5;1.5;;;;;;;5.9;100.0;99660;;;;
2023/01/15 03:26:00;;;;;;;1.5;1.5;;;;;;;6.0;100.0;99660;;;;
2023/01/15 03:27:01;;;;;;;1.4;1.4;;;;;;;6.0;100.0;99660;;;;
2023/01/15 03:28:02;;;;;;;1.4;1.4;;;;;;;6.0;100.0;99670;;;;
2023/01/15 03:29:01;;;;;;;1.4;1.4;;;;;;;6.0;100.0;99670;;;;
2023/01/15 03:30:05;;;;;;;1.4;1.4;;;;;;;5.9;100.0;99650;;;;
2023/01/15 03:31:00;;;;;;;1.4;1.4;;;;;;;5.9;100.0;99650;;;;
2023/01/15 03:32:00;;;;;;;1.4;1.4;;;;;;;5.9;100.0;99660;;;;
2023/01/15 03:33:00;;;;;;;1.4;1.4;;;;;;;5.9;100.0;99660;;;;
2023/01/15 03:34:01;;;;;;;1.4;1.4;;;;;;;5.9;100.0;99650;;;;
2023/01/15 03:35:02;;;;;;;1.4;1.4;;;;;;;5.9;100.0;99650;;;;
2023/01/15 03:36:00;;;;;;;1.4;1.4;;;;;;;5.9;100.0;99650;;;;
2023/01/15 03:37:01;;;;;;;1.4;1.4;;;;;;;5.9;100.0;99650;;;;
2023/01/15 03:38:00;;;;;;;1.4;1.4;;;;;;;5.9;100.0;99650;;;;
2023/01/15 03:39:00;;;;;;;1.4;1.4;;;;;;;5.9;100.0;99650;;;;
2023/01/15 03:40:00;;;;;;;1.4;1.4;;;;;;;5.9;100.0;99640;;;;
2023/01/15 03:41:10;;;;;;;1.4;1.4;;;;;;;5.9;100.0;99640;;;;
2023/01/15 03:42:06;;;;;;;1.4;1.4;;;;;;;5.9;100.0;99640;;;;
2023/01/15 03:44:00;;;;;;;1.4;1.4;;;;;;;5.8;100.0;99650;;;;
2023/01/15 03:45:09;;;;;;;1.4;1.4;;;;;;;5.9;100.0;99650;;;;
2023/01/15 03:46:03;;;;;;;1.4;1.4;;;;;;;5.9;100.0;99650;;;;
2023/01/15 03:47:10;;;;;;;1.6;1.6;;;;;;;5.8;100.0;99650;;;;
2023/01/15 03:48:04;;;;;;;1.6;1.6;;;;;;;5.8;100.0;99650;;;;
2023/01/15 03:49:09;;;;;;;1.6;1.6;;;;;;;5.8;100.0;99650;;;;
2023/01/15 03:50:07;;;;;;;1.6;1.6;;;;;;;5.8;100.0;99650;;;;
2023/01/15 03:51:06;;;;;;;1.6;1.6;;;;;;;5.8;100.0;99660;;;;
2023/01/15 03:52:05;;;;;;;1.6;1.6;;;;;;;5.8;100.0;99660;;;;
2023/01/15 03:53:08;;;;;;;1.6;1.6;;;;;;;5.7;100.0;99650;;;;
2023/01/15 03:54:02;;;;;;;1.6;1.6;;;;;;;5.7;100.0;99650;;;;
2023/01/15 03:55:10;;;;;;;1.6;1.6;;;;;;;5.8;100.0;99650;;;;
2023/01/15 03:56:01;;;;;;;1.6;1.6;;;;;;;5.8;100.0;99650;;;;
2023/01/15 03:57:10;;;;;;;1.6;1.6;;;;;;;5.8;100.0;99650;;;;
2023/01/15 03:58:06;;;;;;;1.6;1.6;;;;;;;5.8;100.0;99650;;;;
2023/01/15 03:59:03;;;;;;;1.6;1.6;;;;;;;5.7;100.0;99640;;;;
2023/01/15 04:00:06;;;;;;;1.6;1.6;;;;;;;5.7;100.0;99640;;;;
2023/01/15 04:01:02;;;;;;;1.6;1.6;;;;;;;5.7;100.0;99640;;;;
2023/01/15 04:02:03;;;;;;;1.6;1.6;;;;;;;5.8;100.0;99640;;;;
2023/01/15 04:03:02;;;;;;;1.6;1.6;;;;;;;5.8;100.0;99640;;;;
2023/01/15 04:04:01;;;;;;;1.6;1.6;;;;;;;5.8;100.0;99630;;;;
2023/01/15 04:05:01;;;;;;;1.6;1.6;;;;;;;5.8;100.0;99630;;;;
2023/01/15 04:06:01;;;;;;;1.6;1.6;;;;;;;5.7;100.0;99640;;;;
2023/01/15 04:07:01;;;;;;;1.5;1.5;;;;;;;5.7;100.0;99640;;;;
2023/01/15 04:08:01;;;;;;;1.5;1.5;;;;;;;5.8;100.0;99640;;;;
2023/01/15 04:09:02;;;;;;;1.5;1.5;;;;;;;5.8;100.0;99640;;;;
2023/01/15 04:10:00;;;;;;;1.5;1.5;;;;;;;5.7;100.0;99640;;;;
2023/01/15 04:11:01;;;;;;;1.5;1.5;;;;;;;5.7;100.0;99640;;;;
2023/01/15 04:12:00;;;;;;;1.5;1.5;;;;;;;5.7;100.0;99640;;;;
2023/01/15 04:13:00;;;;;;;1.5;1.5;;;;;;;5.7;100.0;99640;;;;
2023/01/15 04:14:01;;;;;;;1.5;1.5;;;;;;;5.7;100.0;99630;;;;
2023/01/15 04:15:00;;;;;;;1.5;1.5;;;;;;;5.7;100.0;99630;;;;
2023/01/15 04:16:01;;;;;;;1.5;1.5;;;;;;;5.6;100.0;99630;;;;
2023/01/15 04:17:00;;;;;;;1.5;1.5;;;;;;;5.6;100.0;99630;;;;
2023/01/15 04:18:00;;;;;;;1.5;1.5;;;;;;;5.7;100.0;99640;;;;
2023/01/15 04:19:00;;;;;;;1.5;1.5;;;;;;;5.7;100.0;99640;;;;
2023/01/15 04:20:00;;;;;;;1.5;1.5;;;;;;;5.7;100.0;99630;;;;
2023/01/15 04:21:00;;;;;;;1.5;1.5;;;;;;;5.7;100.0;99630;;;;
2023/01/15 04:22:00;;;;;;;1.5;1.5;;;;;;;5.7;100.0;99630;;;;
2023/01/15 04:23:00;;;;;;;1.5;1.5;;;;;;;5.7;100.0;99630;;;;
2023/01/15 04:24:00;;;;;;;1.5;1.5;;;;;;;5.7;100.0;99630;;;;
2023/01/15 04:25:01;;;;;;;1.5;1.5;;;;;;;5.7;100.0;99630;;;;
2023/01/15 04:26:00;;;;;;;1.5;1.5;;;;;;;5.6;100.0;99630;;;;
2023/01/15 04:27:00;;;;;;;2.0;2.0;;;;;;;5.6;100.0;99630;;;;
2023/01/15 04:28:00;;;;;;;2.0;2.0;;;;;;;5.6;100.0;99630;;;;
2023/01/15 04:29:00;;;;;;;2.0;2.0;;;;;;;5.6;100.0;99630;;;;
2023/01/15 04:30:00;;;;;;;2.0;2.0;;;;;;;5.5;100.0;99630;;;;
2023/01/15 04:31:00;;;;;;;2.0;2.0;;;;;;;5.5;100.0;99630;;;;
2023/01/15 04:32:00;;;;;;;2.0;2.0;;;;;;;5.6;100.0;99640;;;;
2023/01/15 04:33:00;;;;;;;2.0;2.0;;;;;;;5.6;100.0;99640;;;;
2023/01/15 04:34:01;;;;;;;2.0;2.0;;;;;;;5.6;100.0;99640;;;;
2023/01/15 04:35:00;;;;;;;2.0;2.0;;;;;;;5.6;100.0;99640;;;;
2023/01/15 04:36:01;;;;;;;2.0;2.0;;;;;;;5.6;100.0;99620;;;;
2023/01/15 04:37:00;;;;;;;2.0;2.0;;;;;;;5.6;100.0;99620;;;;
2023/01/15 04:38:00;;;;;;;2.0;2.0;;;;;;;5.5;100.0;99620;;;;
2023/01/15 04:39:01;;;;;;;2.0;2.0;;;;;;;5.5;100.0;99620;;;;
2023/01/15 04:40:00;;;;;;;2.0;2.0;;;;;;;5.4;100.0;99620;;;;
2023/01/15 04:44:08;;;;;;;2.0;2.0;;;;;;;5.4;100.0;99630;;;;
2023/01/15 04:45:00;;;;;;;2.0;2.0;;;;;;;5.4;100.0;99630;;;;
2023/01/15 04:46:00;;;;;;;2.0;2.0;;;;;;;5.4;100.0;99640;;;;
2023/01/15 04:47:00;;;;;;;1.8;1.8;;;;;;;5.4;100.0;99640;;;;
2023/01/15 04:48:00;;;;;;;1.8;1.8;;;;;;;5.4;100.0;99630;;;;
2023/01/15 04:49:00;;;;;;;1.8;1.8;;;;;;;5.4;100.0;99630;;;;
2023/01/15 04:50:00;;;;;;;1.8;1.8;;;;;;;5.4;100.0;99630;;;;
2023/01/15 04:51:03;;;;;;;1.8;1.8;;;;;;;5.4;100.0;99630;;;;
2023/01/15 04:52:00;;;;;;;1.8;1.8;;;;;;;5.3;100.0;99650;;;;
2023/01/15 04:53:00;;;;;;;1.8;1.8;;;;;;;5.3;100.0;99650;;;;
2023/01/15 04:54:01;;;;;;;1.8;1.8;;;;;;;5.4;100.0;99650;;;;
2023/01/15 04:55:00;;;;;;;1.8;1.8;;;;;;;5.4;100.0;99650;;;;
2023/01/15 04:56:01;;;;;;;1.8;1.8;;;;;;;5.4;100.0;99650;;;;
2023/01/15 04:57:00;;;;;;;1.8;1.8;;;;;;;5.4;100.0;99650;;;;
2023/01/15 04:58:00;;;;;;;1.8;1.8;;;;;;;5.4;100.0;99650;;;;
2023/01/15 04:59:01;;;;;;;1.8;1.8;;;;;;;5.4;100.0;99650;;;;
2023/01/15 05:00:00;;;;;;;1.8;1.8;;;;;;;5.4;100.0;99660;;;;
2023/01/15 05:01:01;;;;;;;1.8;1.8;;;;;;;5.4;100.0;99660;;;;
2023/01/15 05:02:06;;;;;;;1.8;1.8;;;;;;;5.4;100.0;99650;;;;
2023/01/15 05:03:00;;;;;;;1.8;1.8;;;;;;;5.4;100.0;99650;;;;
2023/01/15 05:04:01;;;;;;;1.8;1.8;;;;;;;5.3;100.0;99660;;;;
2023/01/15 05:05:00;;;;;;;1.8;1.8;;;;;;;5.3;100.0;99660;;;;
2023/01/15 05:06:01;;;;;;;1.8;1.8;;;;;;;5.4;100.0;99650;;;;
2023/01/15 05:07:01;;;;;;;1.7;1.7;;;;;;;5.4;100.0;99650;;;;
2023/01/15 05:08:00;;;;;;;1.7;1.7;;;;;;;5.4;100.0;99660;;;;
2023/01/15 05:09:01;;;;;;;1.7;1.7;;;;;;;5.4;100.0;99660;;;;
2023/01/15 05:10:00;;;;;;;1.7;1.7;;;;;;;5.4;100.0;99650;;;;
2023/01/15 05:11:02;;;;;;;1.7;1.7;;;;;;;5.4;100.0;99650;;;;
2023/01/15 05:12:00;;;;;;;1.7;1.7;;;;;;;5.4;100.0;99660;;;;
2023/01/15 05:13:00;;;;;;;1.7;1.7;;;;;;;5.4;100.0;99660;;;;
2023/01/15 05:14:00;;;;;;;1.7;1.7;;;;;;;5.3;100.0;99650;;;;
2023/01/15 05:15:00;;;;;;;1.7;1.7;;;;;;;5.3;100.0;99650;;;;
2023/01/15 05:16:08;;;;;;;1.7;1.7;;;;;;;5.4;100.0;99660;;;;
2023/01/15 05:17:00;;;;;;;1.7;1.7;;;;;;;5.4;100.0;99660;;;;
2023/01/15 05:18:00;;;;;;;1.7;1.7;;;;;;;5.5;100.0;99650;;;;
2023/01/15 05:19:01;;;;;;;1.7;1.7;;;;;;;5.5;100.0;99650;;;;
2023/01/15 05:20:00;;;;;;;1.7;1.7;;;;;;;5.4;100.0;99650;;;;
2023/01/15 05:21:00;;;;;;;1.7;1.7;;;;;;;5.4;100.0;99650;;;;
2023/01/15 05:22:00;;;;;;;1.7;1.7;;;;;;;5.5;100.0;99650;;;;
2023/01/15 05:23:00;;;;;;;1.7;1.7;;;;;;;5.5;100.0;99650;;;;
2023/01/15 05:24:01;;;;;;;1.7;1.7;;;;;;;5.4;100.0;99640;;;;
2023/01/15 05:25:00;;;;;;;1.7;1.7;;;;;;;5.4;100.0;99640;;;;
2023/01/15 05:26:02;;;;;;;1.7;1.7;;;;;;;5.3;100.0;99650;;;;
2023/01/15 05:27:01;;;;;;;1.6;1.6;;;;;;;5.3;100.0;99650;;;;
2023/01/15 05:28:00;;;;;;;1.6;1.6;;;;;;;5.3;100.0;99650;;;;
2023/01/15 05:29:01;;;;;;;1.6;1.6;;;;;;;5.3;100.0;99650;;;;
2023/01/15 05:30:00;;;;;;;1.6;1.6;;;;;;;5.3;100.0;99650;;;;
2023/01/15 05:31:08;;;;;;;1.6;1.6;;;;;;;5.3;100.0;99640;;;;
2023/01/15 05:32:00;;;;;;;1.6;1.6;;;;;;;5.3;100.0;99640;;;;
2023/01/15 05:33:00;;;;;;;1.6;1.6;;;;;;;5.3;100.0;99640;;;;
2023/01/15 05:34:01;;;;;;;1.6;1.6;;;;;;;5.3;100.0;99640;;;;
2023/01/15 05:35:00;;;;;;;1.6;1.6;;;;;;;5.3;100.0;99640;;;;
2023/01/15 05:36:03;;;;;;;1.6;1.6;;;;;;;5.3;100.0;99650;;;;
2023/01/15 05:37:00;;;;;;;1.6;1.6;;;;;;;5.3;100.0;99650;;;;
2023/01/15 05:38:02;;;;;;;1.6;1.6;;;;;;;5.3;100.0;99640;;;;
2023/01/15 05:39:00;;;;;;;1.6;1.6;;;;;;;5.3;100.0;99640;;;;
2023/01/15 05:40:00;;;;;;;1.6;1.6;;;;;;;5.3;100.0;99640;;;;
2023/01/15 05:42:01;;;;;;;1.6;1.6;;;;;;;5.2;100.0;99630;;;;
2023/01/15 05:43:00;;;;;;;1.6;1.6;;;;;;;5.2;100.0;99630;;;;
2023/01/15 05:44:02;;;;;;;1.6;1.6;;;;;;;5.3;100.0;99630;;;;
2023/01/15 05:45:00;;;;;;;1.6;1.6;;;;;;;5.3;100.0;99630;;;;
2023/01/15 05:46:01;;;;;;;1.6;1.6;;;;;;;5.3;100.0;99630;;;;
2023/01/15 05:47:04;;;;;;;1.8;1.8;;;;;;;5.3;100.0;99630;;;;
2023/01/15 05:48:00;;;;;;;1.8;1.8;;;;;;;5.3;100.0;99630;;;;
2023/01/15 05:49:01;;;;;;;1.8;1.8;;;;;;;5.3;100.0;99630;;;;
2023/01/15 05:50:00;;;;;;;1.8;1.8;;;;;;;5.3;100.0;99630;;;;
2023/01/15 05:51:01;;;;;;;1.8;1.8;;;;;;;5.3;100.0;99630;;;;
2023/01/15 05:52:01;;;;;;;1.8;1.8;;;;;;;5.3;100.0;99640;;;;
2023/01/15 05:53:00;;;;;;;1.8;1.8;;;;;;;5.3;100.0;99640;;;;
2023/01/15 05:54:01;;;;;;;1.8;1.8;;;;;;;5.3;100.0;99640;;;;
2023/01/15 05:55:00;;;;;;;1.8;1.8;;;;;;;5.3;100.0;99640;;;;
2023/01/15 05:56:01;;;;;;;1.8;1.8;;;;;;;5.3;100.0;99640;;;;
2023/01/15 05:57:01;;;;;;;1.8;1.8;;;;;;;5.3;100.0;99640;;;;
2023/01/15 05:58:00;;;;;;;1.8;1.8;;;;;;;5.3;100.0;99630;;;;
2023/01/15 05:59:00;;;;;;;1.8;1.8;;;;;;;5.3;100.0;99630;;;;
2023/01/15 06:00:00;;;;;;;1.8;1.8;;;;;;;5.3;100.0;99640;;;;
2023/01/15 06:01:05;;;;;;;1.8;1.8;;;;;;;5.3;100.0;99640;;;;
2023/01/15 06:02:00;;;;;;;1.8;1.8;;;;;;;5.3;100.0;99640;;;;
2023/01/15 06:03:00;;;;;;;1.8;1.8;;;;;;;5.3;100.0;99640;;;;
2023/01/15 06:04:01;;;;;;;1.8;1.8;;;;;;;5.3;100.0;99640;;;;
2023/01/15 06:05:00;;;;;;;1.8;1.8;;;;;;;5.3;100.0;99640;;;;
2023/01/15 06:06:00;;;;;;;1.8;1.8;;;;;;;5.3;100.0;99640;;;;
2023/01/15 06:07:00;;;;;;;1.7;1.7;;;;;;;5.3;100.0;99640;;;;
2023/01/15 06:08:01;;;;;;;1.7;1.7;;;;;;;5.3;100.0;99630;;;;
2023/01/15 06:09:00;;;;;;;1.7;1.7;;;;;;;5.3;100.0;99630;;;;
2023/01/15 06:10:00;;;;;;;1.7;1.7;;;;;;;5.3;100.0;99630;;;;
2023/01/15 06:11:00;;;;;;;1.7;1.7;;;;;;;5.3;100.0;99630;;;;
2023/01/15 06:12:00;;;;;;;1.7;1.7;;;;;;;5.3;100.0;99620;;;;
2023/01/15 06:13:00;;;;;;;1.7;1.7;;;;;;;5.3;100.0;99620;;;;
2023/01/15 06:14:00;;;;;;;1.7;1.7;;;;;;;5.2;100.0;99640;;;;
2023/01/15 06:15:00;;;;;;;1.7;1.7;;;;;;;5.2;100.0;99640;;;;
2023/01/15 06:16:01;;;;;;;1.7;1.7;;;;;;;5.3;100.0;99640;;;;
2023/01/15 06:17:00;;;;;;;1.7;1.7;;;;;;;5.3;100.0;99640;;;;
2023/01/15 06:18:00;;;;;;;1.7;1.7;;;;;;;5.3;100.0;99630;;;;
2023/01/15 06:19:02;;;;;;;1.7;1.7;;;;;;;5.3;100.0;99630;;;;
2023/01/15 06:20:00;;;;;;;1.7;1.7;;;;;;;5.3;100.0;99640;;;;
2023/01/15 06:21:03;;;;;;;1.7;1.7;;;;;;;5.3;100.0;99640;;;;
2023/01/15 06:22:02;;;;;;;1.7;1.7;;;;;;;5.3;100.0;99650;;;;
2023/01/15 06:23:00;;;;;;;1.7;1.7;;;;;;;5.3;100.0;99650;;;;
2023/01/15 06:24:00;;;;;;;1.7;1.7;;;;;;;5.3;100.0;99650;;;;
2023/01/15 06:25:00;;;;;;;1.7;1.7;;;;;;;5.3;100.0;99650;;;;
2023/01/15 06:26:01;;;;;;;1.7;1.7;;;;;;;5.3;100.0;99650;;;;
2023/01/15 06:27:00;;;;;;;1.8;1.8;;;;;;;5.3;100.0;99650;;;;
2023/01/15 06:28:00;;;;;;;1.8;1.8;;;;;;;5.3;100.0;99650;;;;
2023/01/15 06:29:00;;;;;;;1.8;1.8;;;;;;;5.3;100.0;99650;;;;
2023/01/15 06:30:00;;;;;;;1.8;1.8;;;;;;;5.3;100.0;99660;;;;
2023/01/15 06:31:03;;;;;;;1.8;1.8;;;;;;;5.3;100.0;99660;;;;
2023/01/15 06:32:00;;;;;;;1.8;1.8;;;;;;;5.2;100.0;99670;;;;
2023/01/15 06:33:00;;;;;;;1.8;1.8;;;;;;;5.2;100.0;99670;;;;
2023/01/15 06:34:00;;;;;;;1.8;1.8;;;;;;;5.3;100.0;99670;;;;
2023/01/15 06:35:00;;;;;;;1.8;1.8;;;;;;;5.3;100.0;99670;;;;
2023/01/15 06:36:02;;;;;;;1.8;1.8;;;;;;;5.3;100.0;99670;;;;
2023/01/15 06:37:00;;;;;;;1.8;1.8;;;;;;;5.3;100.0;99670;;;;
2023/01/15 06:38:00;;;;;;;1.8;1.8;;;;;;;5.3;100.0;99670;;;;
2023/01/15 06:39:00;;;;;;;1.8;1.8;;;;;;;5.3;100.0;99670;;;;
2023/01/15 06:40:00;;;;;;;1.8;1.8;;;;;;;5.3;100.0;99670;;;;
2023/01/15 06:41:01;;;;;;;1.8;1.8;;;;;;;5.3;100.0;99670;;;;
2023/01/15 06:47:23;;;;;;;1.6;1.6;;;;;;;5.3;100.0;99690;;;;
2023/01/15 06:48:00;;;;;;;1.6;1.6;;;;;;;5.3;100.0;99690;;;;
2023/01/15 06:49:00;;;;;;;1.6;1.6;;;;;;;5.3;100.0;99690;;;;
2023/01/15 06:50:00;;;;;;;1.6;1.6;;;;;;;5.3;100.0;99680;;;;